createdAt,value
2019-04-05T00:02:47.856Z,10.33
2019-04-05T00:07:42.948Z,9.93
2019-04-05T00:13:06.186Z,10.30
2019-04-05T00:17:59.834Z,10.40
2019-04-05T00:22:54.042Z,10.50
2019-04-05T00:27:50.011Z,10.83
2019-04-05T00:32:44.767Z,10.67
2019-04-05T00:37:38.521Z,10.50
2019-04-05T00:42:32.131Z,11.33
2019-04-05T00:47:25.733Z,10.93
2019-04-05T00:52:19.421Z,10.80
2019-04-05T00:57:13.343Z,11.13
2019-04-05T01:02:07.195Z,11.40
2019-04-05T01:07:05.453Z,11.77
2019-04-05T01:11:59.058Z,12.20
2019-04-05T01:16:52.743Z,11.60
2019-04-05T01:21:48.105Z,12.07
2019-04-05T01:26:44.362Z,11.33
2019-04-05T01:31:37.964Z,12.40
2019-04-05T01:36:31.644Z,12.27
2019-04-05T01:41:25.530Z,12.97
2019-04-05T01:46:19.131Z,12.83
2019-04-05T01:51:12.892Z,13.07
2019-04-05T01:56:06.477Z,11.73
2019-04-05T02:01:00.274Z,11.97
2019-04-05T02:05:53.843Z,12.37
2019-04-05T02:10:47.983Z,13.90
2019-04-05T02:15:41.760Z,14.30
2019-04-05T02:20:35.457Z,12.93
2019-04-05T02:25:29.189Z,13.97
2019-04-05T02:30:23.218Z,13.47
2019-04-05T02:35:17.117Z,13.53
2019-04-05T02:40:12.951Z,14.73
2019-04-05T02:45:07.741Z,13.97
2019-04-05T02:50:01.789Z,13.23
2019-04-05T02:54:56.546Z,13.47
2019-04-05T02:59:50.857Z,14.20
2019-04-05T03:04:44.904Z,15.70
2019-04-05T03:09:38.753Z,13.80
2019-04-05T03:14:32.433Z,14.93
2019-04-05T03:19:30.367Z,14.23
2019-04-05T03:24:28.559Z,14.73
2019-04-05T03:29:22.226Z,14.93
2019-04-05T03:34:16.635Z,14.37
2019-04-05T03:39:12.222Z,14.53
2019-04-05T03:44:06.636Z,14.37
2019-04-05T03:49:00.445Z,14.37
2019-04-05T03:53:54.372Z,14.77
2019-04-05T03:58:48.323Z,13.80
2019-04-05T04:03:42.090Z,13.23
2019-04-05T04:08:36.010Z,13.53
2019-04-05T04:13:29.558Z,13.57
2019-04-05T04:18:24.155Z,13.93
2019-04-05T04:23:20.758Z,13.97
2019-04-05T04:28:14.636Z,15.17
2019-04-05T04:33:08.330Z,14.90
2019-04-05T04:38:02.214Z,15.17
2019-04-05T04:42:56.316Z,15.00
2019-04-05T04:47:50.183Z,14.67
2019-04-05T04:52:44.066Z,17.07
2019-04-05T04:57:37.983Z,15.90
2019-04-05T05:02:31.511Z,16.20
2019-04-05T05:07:25.258Z,16.47
2019-04-05T05:12:18.938Z,16.13
2019-04-05T05:17:12.851Z,16.63
2019-04-05T05:22:06.185Z,17.37
2019-04-05T05:26:59.830Z,16.50
2019-04-05T05:31:53.762Z,16.57
2019-04-05T05:36:47.544Z,17.40
2019-04-05T05:41:41.255Z,15.80
2019-04-05T05:46:34.929Z,17.23
2019-04-05T05:51:28.718Z,16.47
2019-04-05T05:56:22.282Z,18.77
2019-04-05T06:01:17.727Z,15.43
2019-04-05T06:06:11.200Z,17.47
2019-04-05T06:11:04.786Z,16.27
2019-04-05T06:15:58.679Z,15.37
2019-04-05T06:20:52.159Z,15.83
2019-04-05T06:25:46.045Z,16.60
2019-04-05T06:30:39.725Z,16.77
2019-04-05T06:35:33.170Z,16.30
2019-04-05T06:40:39.694Z,16.93
2019-04-05T06:45:22.298Z,17.37
2019-04-05T06:50:15.799Z,16.27
2019-04-05T06:55:09.181Z,16.53
2019-04-05T07:00:02.718Z,15.70
2019-04-05T07:04:56.550Z,16.33
2019-04-05T07:09:50.186Z,15.43
2019-04-05T07:14:43.765Z,16.73
2019-04-05T07:19:37.261Z,17.40
2019-04-05T07:24:30.779Z,16.77
2019-04-05T07:29:24.567Z,16.93
2019-04-05T07:34:18.118Z,17.67
2019-04-05T07:39:11.496Z,17.90
2019-04-05T07:44:05.198Z,17.67
2019-04-05T07:48:58.852Z,17.77
2019-04-05T07:53:52.197Z,17.47
2019-04-05T07:58:45.802Z,16.53
2019-04-05T08:03:39.395Z,15.37
2019-04-05T08:09:06.416Z,15.47
2019-04-05T08:14:02.104Z,16.07
2019-04-05T08:18:58.189Z,16.17
2019-04-05T08:23:51.202Z,15.07
2019-04-05T08:28:44.823Z,16.37
2019-04-05T08:33:38.419Z,17.13
2019-04-05T08:38:32.060Z,15.37
2019-04-05T08:43:25.865Z,14.70
2019-04-05T08:48:19.231Z,16.57
2019-04-05T08:53:12.942Z,14.10
2019-04-05T08:58:06.416Z,11.50
2019-04-05T09:03:00.099Z,12.43
2019-04-05T09:07:53.670Z,10.67
2019-04-05T09:12:47.371Z,12.30
2019-04-05T09:17:40.941Z,11.93
2019-04-05T09:22:34.529Z,12.83
2019-04-05T09:27:27.967Z,12.67
2019-04-05T09:32:21.598Z,12.00
2019-04-05T09:37:15.268Z,12.60
2019-04-05T09:42:08.657Z,11.47
2019-04-05T09:47:02.328Z,12.03
2019-04-05T09:51:55.901Z,13.57
2019-04-05T09:56:49.510Z,12.20
2019-04-05T10:01:43.187Z,12.00
2019-04-05T10:06:36.668Z,11.43
2019-04-05T10:11:30.327Z,10.57
2019-04-05T10:16:23.812Z,10.80
2019-04-05T10:21:17.412Z,9.77
2019-04-05T10:26:11.073Z,10.93
2019-04-05T10:31:04.580Z,8.57
2019-04-05T10:35:58.172Z,7.57
2019-04-05T10:40:51.851Z,7.80
2019-04-05T10:45:46.017Z,7.63
2019-04-05T10:50:39.736Z,7.73
2019-04-05T10:55:33.291Z,7.83
2019-04-05T11:00:27.616Z,7.00
2019-04-05T11:05:21.354Z,7.87
2019-04-05T11:10:17.324Z,8.03
2019-04-05T11:15:14.970Z,7.13
2019-04-05T11:20:20.738Z,7.83
2019-04-05T11:25:06.304Z,7.60
2019-04-05T11:29:59.934Z,7.70
2019-04-05T11:34:53.441Z,7.90
2019-04-05T11:39:48.589Z,7.97
2019-04-05T11:44:44.016Z,8.07
2019-04-05T11:49:39.271Z,8.60
2019-04-05T11:54:32.883Z,8.80
2019-04-05T11:59:26.391Z,9.07
2019-04-05T12:04:19.922Z,9.13
2019-04-05T12:09:13.219Z,9.83
2019-04-05T12:14:06.774Z,9.37
2019-04-05T12:19:04.483Z,9.53
2019-04-05T12:23:56.116Z,9.30
2019-04-05T12:28:49.704Z,9.47
2019-04-05T12:33:43.399Z,9.30
2019-04-05T12:38:36.863Z,10.53
2019-04-05T12:43:30.531Z,10.67
2019-04-05T12:48:24.133Z,10.17
2019-04-05T12:53:17.624Z,10.20
2019-04-05T12:58:11.397Z,9.93
2019-04-05T13:03:05.278Z,9.80
2019-04-05T13:07:58.961Z,11.03
2019-04-05T13:12:56.708Z,10.90
2019-04-05T13:17:47.878Z,11.03
2019-04-05T13:22:41.356Z,10.30
2019-04-05T13:27:34.841Z,10.57
2019-04-05T13:32:28.501Z,9.90
2019-04-05T13:37:23.479Z,10.37
2019-04-05T13:42:17.103Z,10.20
2019-04-05T13:47:10.577Z,10.37
2019-04-05T13:52:06.542Z,9.27
2019-04-05T13:57:01.146Z,9.53
2019-04-05T14:02:05.618Z,9.50
2019-04-05T14:06:53.249Z,10.20
2019-04-05T14:11:45.470Z,10.83
2019-04-05T14:16:42.579Z,11.33
2019-04-05T14:21:40.260Z,10.77
2019-04-05T14:26:29.970Z,10.40
2019-04-05T14:31:23.864Z,10.17
2019-04-05T14:36:17.684Z,9.77
2019-04-05T14:41:11.269Z,8.87
2019-04-05T14:46:05.041Z,9.57
2019-04-05T14:50:58.635Z,10.30
2019-04-05T14:55:52.293Z,8.87
2019-04-05T15:00:47.170Z,9.90
2019-04-05T15:05:41.122Z,10.40
2019-04-05T15:10:34.997Z,9.73
2019-04-05T15:15:28.961Z,9.33
2019-04-05T15:20:22.752Z,10.80
2019-04-05T15:25:17.505Z,11.33
2019-04-05T15:30:11.773Z,11.60
2019-04-05T15:35:05.986Z,12.23
2019-04-05T15:40:00.434Z,11.50
2019-04-05T15:44:54.569Z,11.40
2019-04-05T15:49:51.818Z,11.73
2019-04-05T15:54:45.352Z,11.77
2019-04-05T15:59:39.104Z,11.50
2019-04-05T16:04:32.659Z,12.67
2019-04-05T16:09:26.378Z,12.73
2019-04-05T16:14:19.871Z,13.37
2019-04-05T16:19:13.658Z,12.80
2019-04-05T16:24:07.244Z,12.33
2019-04-05T16:29:01.225Z,12.07
2019-04-05T16:33:54.847Z,14.03
2019-04-05T16:38:48.406Z,12.33
2019-04-05T16:43:42.003Z,13.23
2019-04-05T16:48:35.530Z,14.03
2019-04-05T16:53:29.127Z,13.33
2019-04-05T16:58:22.717Z,13.87
2019-04-05T17:03:16.271Z,13.73
2019-04-05T17:08:09.657Z,14.57
2019-04-05T17:13:03.151Z,15.07
2019-04-05T17:17:56.543Z,15.50
2019-04-05T17:22:58.136Z,13.67
2019-04-05T17:27:45.565Z,13.50
2019-04-05T17:32:39.088Z,14.30
2019-04-05T17:37:32.543Z,14.93
2019-04-05T17:42:26.099Z,14.37
2019-04-05T17:47:19.542Z,15.10
2019-04-05T17:52:13.002Z,14.73
2019-04-05T17:57:06.695Z,16.40
2019-04-05T18:02:00.614Z,15.47
2019-04-05T18:06:54.305Z,14.90
2019-04-05T18:11:47.640Z,15.13
2019-04-05T18:16:41.216Z,15.63
2019-04-05T18:21:34.643Z,16.97
2019-04-05T18:26:28.328Z,15.63
2019-04-05T18:31:21.913Z,15.50
2019-04-05T18:36:15.734Z,15.70
2019-04-05T18:41:09.381Z,16.70
2019-04-05T18:46:03.014Z,15.03
2019-04-05T18:50:56.435Z,15.93
2019-04-05T18:55:49.972Z,17.20
2019-04-05T19:00:43.594Z,16.33
2019-04-05T19:05:37.189Z,15.77
2019-04-05T19:10:36.914Z,16.33
2019-04-05T19:15:26.093Z,16.67
2019-04-05T19:20:19.776Z,16.33
2019-04-05T19:25:13.255Z,16.77
2019-04-05T19:49:50.035Z,16.20
2019-04-05T19:54:43.522Z,16.33
2019-04-05T19:59:37.199Z,16.13
2019-04-05T20:04:30.895Z,17.27
2019-04-05T20:09:24.353Z,16.83
2019-04-05T20:14:17.993Z,16.03
2019-04-05T20:19:11.569Z,16.10
2019-04-05T20:24:13.686Z,16.57
2019-04-05T20:29:00.524Z,16.00
2019-04-05T20:33:54.129Z,16.87
2019-04-05T20:38:47.611Z,15.33
2019-04-05T20:43:41.321Z,15.93
2019-04-05T20:48:34.997Z,15.97
2019-04-05T20:53:28.671Z,17.00
2019-04-05T20:58:22.256Z,16.90
2019-04-05T21:03:15.750Z,15.97
2019-04-05T21:08:09.342Z,15.43
2019-04-05T21:13:04.312Z,15.73
2019-04-05T21:17:58.031Z,14.17
2019-04-05T21:22:51.515Z,15.50
2019-04-05T21:27:45.251Z,15.27
2019-04-05T21:32:38.998Z,15.20
2019-04-05T21:37:32.810Z,16.20
2019-04-05T21:42:26.574Z,15.03
2019-04-05T21:47:20.475Z,15.17
2019-04-05T21:52:14.300Z,16.00
2019-04-05T21:57:07.867Z,15.13
2019-04-05T22:02:01.749Z,16.23
2019-04-05T22:06:55.310Z,16.47
2019-04-05T22:11:49.130Z,16.73
2019-04-05T22:16:42.810Z,16.50
2019-04-05T22:21:36.391Z,15.20
2019-04-05T22:26:31.581Z,17.00
2019-04-05T22:31:25.197Z,15.63
2019-04-05T22:36:18.850Z,16.83
2019-04-05T22:41:12.386Z,17.00
2019-04-05T22:46:05.942Z,16.23
2019-04-05T22:50:59.715Z,16.87
2019-04-05T22:55:53.417Z,16.73
2019-04-05T23:00:47.235Z,16.73
2019-04-05T23:05:40.877Z,15.03
2019-04-05T23:10:34.543Z,16.63
2019-04-05T23:15:28.230Z,16.67
2019-04-05T23:20:22.464Z,16.80
2019-04-05T23:25:21.730Z,15.63
2019-04-05T23:30:11.953Z,15.50
2019-04-05T23:35:05.678Z,16.40
2019-04-05T23:39:59.361Z,14.97
2019-04-05T23:44:52.613Z,14.83
2019-04-05T23:49:45.924Z,16.33
2019-04-05T23:54:39.142Z,15.77
2019-04-05T23:59:32.717Z,16.53
